Time;durP1;ratioP1;P1;durP2;ratioP2;P2;SDS_P1;SDS_P2;PMS_P1;PMS_P2;Temp;Humidity;BMP_temperature;BMP_pressure;BME280_temperature;BME280_humidity;BME280_pressure;Samples;Min_cycle;Max_cycle;Signal;HPM_P1;HPM_P2
2023/11/25 00:00:27;;;;;;;6.40;2.25;;;;;;;20.13;57.34;101452.28;5085142;28;20044;-37
2023/11/25 00:02:53;;;;;;;7.47;2.30;;;;;;;20.11;57.14;101446.22;5096966;28;20032;-37
2023/11/25 00:05:19;;;;;;;6.47;2.15;;;;;;;20.10;56.86;101441.81;5081149;28;20162;-37
2023/11/25 00:07:45;;;;;;;6.13;2.00;;;;;;;20.07;56.60;101434.94;5085015;28;20039;-37
2023/11/25 00:10:11;;;;;;;7.68;2.28;;;;;;;20.07;56.31;101431.38;5083549;28;20036;-37
2023/11/25 00:12:36;;;;;;;9.02;2.67;;;;;;;20.05;56.40;101426.16;5078677;28;20024;-37
2023/11/25 00:15:03;;;;;;;6.97;2.35;;;;;;;20.01;56.10;101430.56;5087967;28;20028;-37
2023/11/25 00:17:29;;;;;;;8.65;2.47;;;;;;;19.99;56.22;101430.03;5079212;28;20021;-37
2023/11/25 00:19:56;;;;;;;9.40;2.42;;;;;;;19.97;56.22;101427.53;5084703;28;20035;-37
2023/11/25 00:22:21;;;;;;;5.60;2.00;;;;;;;19.94;55.88;101430.00;5086422;28;20483;-37
2023/11/25 00:24:47;;;;;;;5.78;2.20;;;;;;;19.93;55.95;101425.63;5084309;28;20031;-37
2023/11/25 00:27:13;;;;;;;9.23;2.38;;;;;;;19.91;56.14;101430.56;5083094;28;20016;-37
2023/11/25 00:29:39;;;;;;;10.93;2.33;;;;;;;19.89;56.21;101430.84;5084357;28;20038;-37
2023/11/25 00:32:04;;;;;;;8.20;2.55;;;;;;;19.87;55.76;101422.03;5083466;28;20122;-37
2023/11/25 00:34:30;;;;;;;9.35;2.35;;;;;;;19.84;55.62;101423.41;5092637;28;20034;-37
2023/11/25 00:36:55;;;;;;;8.45;2.97;;;;;;;19.84;55.80;101423.41;5085557;28;20119;-37
2023/11/25 00:39:21;;;;;;;7.78;2.28;;;;;;;19.81;55.74;101426.69;5084192;28;20047;-37
2023/11/25 00:41:48;;;;;;;6.07;2.47;;;;;;;19.79;56.01;101428.91;5078961;28;20389;-37
2023/11/25 00:44:13;;;;;;;8.75;2.70;;;;;;;19.79;55.87;101422.56;5082593;28;20024;-37
2023/11/25 00:46:39;;;;;;;8.05;2.45;;;;;;;19.77;55.87;101422.84;5080453;28;20027;-38
2023/11/25 00:49:05;;;;;;;8.23;2.78;;;;;;;19.76;55.58;101423.13;5078902;28;20059;-37
2023/11/25 00:51:31;;;;;;;8.32;2.65;;;;;;;19.72;55.74;101423.66;5082249;28;20032;-37
2023/11/25 00:53:56;;;;;;;5.50;2.25;;;;;;;19.72;55.62;101422.84;5083326;28;20113;-37
2023/11/25 00:56:21;;;;;;;9.95;2.70;;;;;;;19.71;55.66;101432.19;5083297;28;20038;-37
2023/11/25 00:58:47;;;;;;;7.68;2.28;;;;;;;19.68;55.90;101432.72;5085935;28;20555;-37
2023/11/25 01:01:12;;;;;;;9.68;2.60;;;;;;;19.67;55.63;101433.84;5072207;28;20035;-37
2023/11/25 01:03:38;;;;;;;5.90;2.30;;;;;;;19.65;55.92;101428.59;5083972;28;20431;-37
2023/11/25 01:06:10;;;;;;;7.78;2.33;;;;;;;19.63;55.87;101428.06;5082044;28;20119;-37
2023/11/25 01:08:36;;;;;;;10.45;2.80;;;;;;;19.62;55.94;101429.16;5083559;28;20072;-36
2023/11/25 01:11:02;;;;;;;6.78;2.38;;;;;;;19.61;55.81;101426.66;5083575;28;20024;-37
2023/11/25 01:13:28;;;;;;;11.60;2.83;;;;;;;19.59;55.60;101429.69;5078621;28;20030;-37
2023/11/25 01:15:54;;;;;;;8.52;2.58;;;;;;;19.58;55.82;101430.78;5082888;28;20278;-37
2023/11/25 01:18:20;;;;;;;9.55;2.90;;;;;;;19.56;55.59;101442.06;5080950;28;20687;-37
2023/11/25 01:20:45;;;;;;;11.02;2.72;;;;;;;19.56;55.74;101436.56;5116437;27;20028;-38
2023/11/25 01:23:11;;;;;;;9.65;2.42;;;;;;;19.55;55.51;101434.91;5085021;28;20506;-37
2023/11/25 01:25:36;;;;;;;7.82;2.70;;;;;;;19.54;55.86;101441.50;5084811;28;20028;-37
2023/11/25 01:28:03;;;;;;;9.32;2.95;;;;;;;19.54;55.46;101444.25;5080863;28;20036;-37
2023/11/25 01:30:30;;;;;;;8.60;3.00;;;;;;;19.54;55.72;101446.19;5090643;28;20148;-37
2023/11/25 01:32:58;;;;;;;8.57;2.63;;;;;;;19.52;55.61;101443.72;5087392;28;20524;-37
2023/11/25 01:35:24;;;;;;;12.25;3.15;;;;;;;19.51;55.67;101438.47;5088733;28;20120;-37
2023/11/25 01:37:50;;;;;;;8.70;3.10;;;;;;;19.51;55.30;101442.06;5083307;28;20107;-37
2023/11/25 01:40:15;;;;;;;7.43;2.75;;;;;;;19.51;55.66;101444.81;5088559;28;20085;-37
2023/11/25 01:42:41;;;;;;;9.13;2.83;;;;;;;19.50;55.47;101445.09;5084378;28;20122;-37
2023/11/25 01:45:08;;;;;;;12.32;3.08;;;;;;;19.51;55.50;101449.47;5081239;28;20028;-37
2023/11/25 01:47:34;;;;;;;10.40;2.88;;;;;;;19.51;55.33;101442.06;5079249;28;20028;-37
2023/11/25 01:50:01;;;;;;;9.65;2.90;;;;;;;19.50;55.34;101442.34;5079783;28;20024;-37
2023/11/25 01:52:27;;;;;;;11.00;2.70;;;;;;;19.50;55.45;101447.84;5074292;28;20035;-37
2023/11/25 01:54:53;;;;;;;7.20;2.50;;;;;;;19.50;55.44;101453.34;5098043;28;20732;-37
2023/11/25 01:57:20;;;;;;;8.55;2.70;;;;;;;19.47;55.31;101457.47;5082830;28;20640;-37
2023/11/25 01:59:48;;;;;;;8.23;2.70;;;;;;;19.47;55.43;101453.88;5065898;28;20028;-37
2023/11/25 02:02:15;;;;;;;9.73;3.08;;;;;;;19.45;55.46;101458.81;5081722;28;20028;-37
2023/11/25 02:04:42;;;;;;;8.65;2.45;;;;;;;19.44;55.15;101447.00;5084346;28;20035;-37
2023/11/25 02:07:10;;;;;;;10.40;2.63;;;;;;;19.41;55.18;101444.78;5082206;28;20020;-38
2023/11/25 02:09:35;;;;;;;7.38;2.60;;;;;;;19.41;55.35;101450.28;5080987;28;20030;-37
2023/11/25 02:12:04;;;;;;;9.50;2.78;;;;;;;19.40;55.23;101452.22;5073151;28;20024;-37
2023/11/25 02:14:30;;;;;;;7.68;2.75;;;;;;;19.39;54.96;101445.06;5082279;28;20044;-37
2023/11/25 02:16:55;;;;;;;10.40;2.72;;;;;;;19.38;55.03;101439.84;5083861;28;20130;-37
2023/11/25 02:19:24;;;;;;;11.10;2.60;;;;;;;19.38;54.85;101437.09;5084574;28;20365;-37
2023/11/25 02:21:50;;;;;;;8.43;2.55;;;;;;;19.37;55.08;101436.28;5084051;28;20380;-37
2023/11/25 02:24:16;;;;;;;7.43;2.70;;;;;;;19.37;55.02;101433.53;5083421;28;20020;-37
2023/11/25 02:26:42;;;;;;;8.98;2.53;;;;;;;19.35;54.94;101427.47;5081566;28;20082;-38
2023/11/25 02:29:09;;;;;;;9.70;2.45;;;;;;;19.35;54.80;101426.63;5081156;28;20500;-37
2023/11/25 02:31:35;;;;;;;7.80;2.58;;;;;;;19.33;54.80;101435.16;5082466;28;20047;-38
2023/11/25 02:34:00;;;;;;;9.68;2.97;;;;;;;19.32;54.90;101432.69;5085269;28;20508;-37
2023/11/25 02:36:26;;;;;;;8.70;2.03;;;;;;;19.32;54.89;101425.25;5086644;28;20308;-37
2023/11/25 02:38:52;;;;;;;7.90;2.92;;;;;;;19.31;54.63;101420.03;5086588;28;20020;-37
2023/11/25 02:41:18;;;;;;;8.02;2.58;;;;;;;19.30;54.56;101427.47;5082297;28;20028;-37
2023/11/25 02:43:43;;;;;;;7.25;2.40;;;;;;;19.28;54.96;101429.66;5084576;28;20031;-38
2023/11/25 02:46:09;;;;;;;6.38;2.20;;;;;;;19.29;54.65;101430.47;5080543;28;20058;-37
2023/11/25 02:48:35;;;;;;;9.05;2.60;;;;;;;19.27;54.81;101429.94;5078012;28;20028;-37
2023/11/25 02:51:01;;;;;;;6.72;2.60;;;;;;;19.26;54.51;101420.84;5086559;28;20499;-37
2023/11/25 02:53:26;;;;;;;8.32;2.60;;;;;;;19.25;54.78;101410.94;5085020;28;20051;-37
2023/11/25 02:55:52;;;;;;;10.90;2.90;;;;;;;19.24;54.70;101414.81;5086396;28;20056;-37
2023/11/25 02:58:17;;;;;;;7.82;2.92;;;;;;;19.24;54.74;101414.81;5077429;28;20024;-37
2023/11/25 03:00:43;;;;;;;8.35;2.63;;;;;;;19.22;54.57;101417.81;5086118;28;20043;-38
2023/11/25 03:03:12;;;;;;;9.82;2.38;;;;;;;19.22;54.63;101415.06;5094707;28;20027;-37
2023/11/25 03:05:42;;;;;;;9.00;2.30;;;;;;;19.21;54.48;101416.19;5100496;28;20573;-37
2023/11/25 03:08:09;;;;;;;7.07;2.30;;;;;;;19.20;54.52;101414.53;5094812;28;20490;-37
2023/11/25 03:10:35;;;;;;;8.27;2.60;;;;;;;19.19;54.51;101417.53;5084508;28;20450;-37
2023/11/25 03:13:01;;;;;;;8.55;2.15;;;;;;;19.19;54.40;101409.28;5091793;28;20035;-37
2023/11/25 03:15:26;;;;;;;9.07;2.38;;;;;;;19.18;54.42;101402.16;5088290;28;20024;-37
2023/11/25 03:17:51;;;;;;;10.90;2.75;;;;;;;19.18;54.58;101396.66;5086650;28;20032;-37
2023/11/25 03:20:17;;;;;;;8.63;2.60;;;;;;;19.18;54.64;101394.72;5078074;28;21753;-37
2023/11/25 03:22:43;;;;;;;7.47;2.25;;;;;;;19.17;54.43;101389.50;5077581;28;20035;-37
2023/11/25 03:25:09;;;;;;;5.78;2.25;;;;;;;19.16;54.34;101388.66;5089436;28;20385;-37
2023/11/25 03:27:37;;;;;;;9.65;2.58;;;;;;;19.15;54.48;101400.75;5087714;28;20031;-37
2023/11/25 03:30:06;;;;;;;6.57;2.33;;;;;;;19.14;54.30;101414.78;5071525;28;20085;-37
2023/11/25 03:32:32;;;;;;;8.60;2.60;;;;;;;19.13;54.18;101415.84;5078020;28;20401;-39
2023/11/25 03:34:57;;;;;;;7.38;2.42;;;;;;;19.12;54.30;101414.22;5077816;28;20016;-37
2023/11/25 03:37:24;;;;;;;9.18;2.60;;;;;;;19.11;54.10;101420.81;5086691;28;20024;-37
2023/11/25 03:39:50;;;;;;;6.88;2.28;;;;;;;19.10;54.40;101419.97;5083536;28;20453;-37
2023/11/25 03:42:19;;;;;;;9.82;2.53;;;;;;;19.10;54.45;101424.66;5083578;28;20030;-37
2023/11/25 03:44:45;;;;;;;7.40;2.75;;;;;;;19.08;54.16;101414.75;5082438;28;20023;-37
2023/11/25 03:47:11;;;;;;;5.97;2.13;;;;;;;19.08;54.45;101405.72;5083703;28;20082;-37
2023/11/25 03:49:36;;;;;;;7.75;2.58;;;;;;;19.08;54.55;101402.97;5086300;28;20442;-38
2023/11/25 03:52:02;;;;;;;7.55;2.17;;;;;;;19.07;54.26;101399.38;5080096;28;20032;-37
2023/11/25 03:54:28;;;;;;;7.10;2.20;;;;;;;19.06;54.41;101405.13;5080785;28;20059;-37
2023/11/25 03:56:53;;;;;;;8.30;2.55;;;;;;;19.04;54.50;101405.41;5082706;28;20040;-37
2023/11/25 03:59:19;;;;;;;6.72;2.17;;;;;;;19.04;54.43;101427.41;5084906;28;20028;-37
2023/11/25 04:01:44;;;;;;;6.55;2.35;;;;;;;19.05;54.16;101439.19;5085441;28;20024;-37
2023/11/25 04:04:10;;;;;;;7.30;2.40;;;;;;;19.02;54.58;101448.81;5088853;28;20426;-37
2023/11/25 04:06:36;;;;;;;5.80;2.00;;;;;;;19.01;54.59;101460.88;5068328;28;20051;-37
2023/11/25 04:09:01;;;;;;;6.47;2.42;;;;;;;19.01;54.52;101458.13;5080093;28;20064;-37
2023/11/25 04:11:27;;;;;;;7.38;2.50;;;;;;;19.00;54.60;101429.00;5080701;28;20555;-37
2023/11/25 04:13:56;;;;;;;3.90;1.80;;;;;;;19.00;54.63;101431.75;5079960;28;20023;-37
2023/11/25 04:16:22;;;;;;;7.05;2.20;;;;;;;18.99;54.76;101416.38;5084363;28;20020;-37
2023/11/25 04:18:47;;;;;;;8.55;2.20;;;;;;;19.01;54.34;101418.88;5075937;28;20032;-37
2023/11/25 04:21:13;;;;;;;5.20;1.85;;;;;;;19.00;54.60;101418.03;5085229;28;20475;-37
2023/11/25 04:23:38;;;;;;;6.93;2.00;;;;;;;19.01;54.75;101418.88;5088748;28;20504;-37
2023/11/25 04:26:05;;;;;;;9.13;2.20;;;;;;;19.00;54.59;101429.00;5083781;28;20398;-37
2023/11/25 04:28:33;;;;;;;9.57;2.25;;;;;;;18.99;54.68;101438.34;5077883;28;20032;-37
2023/11/25 04:30:58;;;;;;;9.02;2.28;;;;;;;19.00;54.62;101409.78;5075028;28;20024;-37
2023/11/25 04:33:24;;;;;;;4.90;2.00;;;;;;;19.00;54.78;101403.47;5078238;28;20494;-37
2023/11/25 04:35:53;;;;;;;6.43;2.10;;;;;;;18.99;54.69;101407.31;5078298;28;20028;-37
2023/11/25 04:38:19;;;;;;;6.78;1.95;;;;;;;18.98;54.53;101392.75;5079548;28;20052;-37
2023/11/25 04:40:45;;;;;;;7.47;2.03;;;;;;;18.99;54.77;101412.81;5087799;28;20142;-37
2023/11/25 04:43:10;;;;;;;6.65;1.80;;;;;;;18.98;54.77;101409.25;5084842;28;20036;-37
2023/11/25 04:45:36;;;;;;;2.78;1.60;;;;;;;18.97;54.66;101398.50;5083381;28;20020;-37
2023/11/25 04:48:01;;;;;;;5.80;2.10;;;;;;;18.95;54.69;101393.28;5083473;28;20306;-37
2023/11/25 04:50:27;;;;;;;4.80;2.08;;;;;;;18.95;54.84;101401.53;5083561;28;20694;-37
2023/11/25 04:52:52;;;;;;;5.43;1.95;;;;;;;18.95;54.91;101400.72;5084312;28;20026;-37
2023/11/25 04:55:19;;;;;;;3.58;1.60;;;;;;;18.94;54.65;101407.31;5083292;28;20070;-37
2023/11/25 04:57:45;;;;;;;8.85;2.45;;;;;;;18.92;54.58;101402.91;5083518;28;20036;-37
2023/11/25 05:00:11;;;;;;;4.47;1.70;;;;;;;18.92;54.85;101399.34;5083332;28;20034;-38
2023/11/25 05:02:37;;;;;;;6.03;2.00;;;;;;;18.91;54.92;101400.44;5086674;28;20032;-37
2023/11/25 05:05:04;;;;;;;5.38;1.70;;;;;;;18.90;54.89;101385.00;5084714;28;20023;-37
2023/11/25 05:07:30;;;;;;;4.50;1.73;;;;;;;18.89;54.98;101377.84;5084581;28;20028;-37
2023/11/25 05:09:56;;;;;;;6.05;1.58;;;;;;;18.88;54.92;101382.53;5084444;28;20039;-37
2023/11/25 05:12:22;;;;;;;6.13;2.10;;;;;;;18.87;54.99;101372.66;5077739;28;20020;-37
2023/11/25 05:14:47;;;;;;;6.35;1.70;;;;;;;18.86;54.95;101371.00;5078591;28;20024;-37
2023/11/25 05:17:12;;;;;;;5.30;1.50;;;;;;;18.85;54.82;101376.75;5081924;28;20023;-37
2023/11/25 05:19:38;;;;;;;7.38;1.73;;;;;;;18.85;55.02;101382.25;5081983;28;20036;-37
2023/11/25 05:22:04;;;;;;;5.72;1.73;;;;;;;18.84;54.98;101389.66;5082626;28;20024;-37
2023/11/25 05:24:30;;;;;;;4.00;1.55;;;;;;;18.84;55.22;101391.56;5092479;28;20535;-37
2023/11/25 05:26:55;;;;;;;7.18;1.83;;;;;;;18.86;55.28;101381.13;5084512;28;20030;-37
2023/11/25 05:29:21;;;;;;;4.22;1.63;;;;;;;18.90;54.95;101399.56;5084998;28;20024;-37
2023/11/25 05:31:46;;;;;;;9.07;1.90;;;;;;;18.94;55.18;101432.84;5089126;28;20027;-37
2023/11/25 05:34:12;;;;;;;4.90;1.90;;;;;;;19.01;54.92;101422.44;5081185;28;20043;-37
2023/11/25 05:36:38;;;;;;;4.53;1.95;;;;;;;19.09;54.74;101404.59;5079165;28;20024;-37
2023/11/25 05:39:07;;;;;;;8.77;1.85;;;;;;;19.17;54.84;101403.25;5081869;28;20047;-37
2023/11/25 05:41:37;;;;;;;6.13;1.73;;;;;;;19.26;54.98;101398.03;5081844;28;20036;-37
2023/11/25 05:44:06;;;;;;;4.95;1.70;;;;;;;19.32;54.91;101389.53;5083672;28;20085;-37
2023/11/25 05:46:31;;;;;;;5.22;1.75;;;;;;;19.43;55.00;101378.56;5082269;28;20540;-38
2023/11/25 05:48:57;;;;;;;4.45;1.73;;;;;;;19.52;54.75;101363.16;5081855;28;20111;-37
2023/11/25 05:51:23;;;;;;;5.30;1.73;;;;;;;19.62;54.79;101365.91;5077622;28;20032;-37
2023/11/25 05:53:48;;;;;;;5.20;1.80;;;;;;;19.71;54.80;101363.44;5092354;28;20118;-37
2023/11/25 05:56:13;;;;;;;11.32;1.95;;;;;;;19.80;54.63;101364.50;5082084;28;20061;-38
2023/11/25 05:58:39;;;;;;;7.22;2.03;;;;;;;19.88;54.53;101368.69;5090721;28;20036;-37
2023/11/25 06:01:04;;;;;;;3.72;1.80;;;;;;;19.95;54.69;101360.97;5080900;28;20024;-38
2023/11/25 06:03:30;;;;;;;3.85;1.52;;;;;;;20.04;54.47;101352.97;5124159;27;20062;-37
2023/11/25 06:05:55;;;;;;;4.18;1.40;;;;;;;20.10;54.70;101346.34;5088980;28;20531;-38
2023/11/25 06:08:21;;;;;;;3.95;1.60;;;;;;;20.18;54.75;101348.53;5095267;28;20106;-37
2023/11/25 06:10:49;;;;;;;4.80;1.77;;;;;;;20.25;54.56;101341.91;5085824;28;20036;-37
2023/11/25 06:13:15;;;;;;;10.25;1.95;;;;;;;20.32;54.58;101335.00;5082454;28;20190;-37
2023/11/25 06:15:40;;;;;;;2.47;1.40;;;;;;;20.40;54.43;101338.28;5080079;28;20028;-37
2023/11/25 06:18:07;;;;;;;5.55;1.77;;;;;;;20.46;54.23;101340.72;5080536;28;20036;-37
2023/11/25 06:20:34;;;;;;;4.25;1.60;;;;;;;20.51;54.48;101328.88;5084957;28;20032;-37
2023/11/25 06:23:00;;;;;;;6.03;1.55;;;;;;;20.57;54.54;101333.25;5079712;28;20525;-37
2023/11/25 06:25:26;;;;;;;3.03;1.33;;;;;;;20.62;54.43;101343.41;5086018;28;20103;-37
2023/11/25 06:27:51;;;;;;;4.47;1.85;;;;;;;20.64;54.24;101361.31;5083286;28;20381;-37
2023/11/25 06:30:17;;;;;;;4.90;1.83;;;;;;;20.69;54.54;101366.78;5082043;28;20051;-37
2023/11/25 06:32:42;;;;;;;5.25;1.52;;;;;;;20.72;54.15;101350.84;5083247;28;20035;-37
2023/11/25 06:35:09;;;;;;;5.05;1.83;;;;;;;20.77;54.38;101350.81;5087338;28;20405;-37
2023/11/25 06:37:36;;;;;;;4.05;1.50;;;;;;;20.79;54.18;101346.66;5086256;28;20032;-37
2023/11/25 06:40:02;;;;;;;4.10;1.60;;;;;;;20.80;54.40;101340.03;5085415;28;20019;-37
2023/11/25 06:42:28;;;;;;;6.32;1.60;;;;;;;20.82;54.17;101340.59;5085987;28;20030;-38
2023/11/25 06:44:54;;;;;;;5.75;1.90;;;;;;;20.80;54.18;101337.28;5087407;28;20032;-37
2023/11/25 06:47:19;;;;;;;6.45;2.42;;;;;;;20.81;54.26;101332.63;5085574;28;20031;-37
2023/11/25 06:49:46;;;;;;;5.68;1.40;;;;;;;20.79;54.33;101326.56;5082534;28;20024;-37
2023/11/25 06:52:12;;;;;;;4.57;1.75;;;;;;;20.77;54.43;101337.88;5087807;28;20024;-37
2023/11/25 06:54:38;;;;;;;4.63;1.67;;;;;;;20.74;54.28;101337.63;5087077;28;20036;-37
2023/11/25 06:57:04;;;;;;;5.65;1.80;;;;;;;20.71;54.50;101335.38;5086645;28;20387;-37
2023/11/25 06:59:29;;;;;;;7.50;1.92;;;;;;;20.67;54.38;101335.97;5085326;28;20499;-37
2023/11/25 07:01:54;;;;;;;7.18;2.10;;;;;;;20.66;54.35;101334.31;5085288;28;20019;-37
2023/11/25 07:04:21;;;;;;;5.75;1.85;;;;;;;20.66;54.50;101336.22;5081408;28;20024;-37
2023/11/25 07:06:46;;;;;;;5.53;1.60;;;;;;;20.65;54.52;101323.59;5084997;28;20024;-37
2023/11/25 07:09:13;;;;;;;7.45;2.20;;;;;;;20.66;54.26;101333.47;5083693;28;20089;-37
2023/11/25 07:11:40;;;;;;;6.20;1.80;;;;;;;20.69;54.44;101352.19;5081129;28;20139;-37
2023/11/25 07:14:06;;;;;;;5.05;1.77;;;;;;;20.70;54.24;101364.88;5085731;28;20024;-37
2023/11/25 07:16:32;;;;;;;5.45;1.90;;;;;;;20.71;54.19;101366.53;5078054;28;20032;-37
2023/11/25 07:19:00;;;;;;;4.82;1.55;;;;;;;20.73;54.38;101364.31;5078414;28;20058;-37
2023/11/25 07:21:26;;;;;;;6.50;1.58;;;;;;;20.75;54.18;101356.59;5087138;28;20028;-37
2023/11/25 07:23:52;;;;;;;4.88;1.60;;;;;;;20.76;54.11;101344.50;5083200;28;20023;-37
2023/11/25 07:26:17;;;;;;;4.90;1.80;;;;;;;20.77;54.29;101348.06;5082626;28;20028;-37
2023/11/25 07:28:43;;;;;;;3.22;1.33;;;;;;;20.77;54.00;101346.13;5093826;28;20028;-37
2023/11/25 07:31:11;;;;;;;5.13;1.90;;;;;;;20.78;54.42;101347.75;5091722;28;20072;-37
2023/11/25 07:33:37;;;;;;;6.30;1.90;;;;;;;20.78;54.44;101352.47;5081418;28;20028;-37
2023/11/25 07:36:03;;;;;;;4.90;1.77;;;;;;;20.78;53.98;101352.47;5086135;28;20399;-37
2023/11/25 07:38:28;;;;;;;9.90;1.83;;;;;;;20.76;54.19;101346.41;5085987;28;20039;-37
2023/11/25 07:40:54;;;;;;;7.85;2.03;;;;;;;20.73;54.25;101344.22;5089870;28;20028;-37
2023/11/25 07:43:19;;;;;;;5.30;1.92;;;;;;;20.73;54.03;101345.03;5089419;28;20055;-37
2023/11/25 07:45:44;;;;;;;7.93;1.80;;;;;;;20.72;54.15;101339.81;5096188;28;20024;-37
2023/11/25 07:48:10;;;;;;;4.13;1.75;;;;;;;20.69;54.55;101347.50;5091657;28;20016;-37
2023/11/25 07:50:37;;;;;;;7.25;1.88;;;;;;;20.68;54.33;101350.56;5080467;28;20063;-37
2023/11/25 07:53:02;;;;;;;4.97;1.70;;;;;;;20.65;54.22;101346.44;5088076;28;20057;-36
2023/11/25 07:55:28;;;;;;;7.40;2.00;;;;;;;20.64;54.11;101366.00;5084259;28;20051;-36
2023/11/25 07:57:53;;;;;;;5.82;1.83;;;;;;;20.62;54.47;101351.69;5084844;28;20039;-38
2023/11/25 08:00:19;;;;;;;5.97;2.00;;;;;;;20.59;53.90;101350.31;5085044;28;20556;-37
2023/11/25 08:02:47;;;;;;;4.65;1.75;;;;;;;20.57;53.89;101357.22;5072629;28;20081;-37
2023/11/25 08:05:21;;;;;;;7.38;1.90;;;;;;;20.51;54.15;101348.97;5082813;28;20047;-37
2023/11/25 08:07:50;;;;;;;9.00;2.03;;;;;;;20.49;54.20;101342.94;5088528;28;20028;-37
2023/11/25 08:10:16;;;;;;;6.20;1.85;;;;;;;20.46;54.07;101342.66;5090382;28;20115;-37
2023/11/25 08:12:41;;;;;;;5.13;1.88;;;;;;;20.43;54.08;101352.31;5087336;28;20050;-37
2023/11/25 08:15:07;;;;;;;3.38;1.60;;;;;;;20.40;54.25;101349.28;5085834;28;20031;-36
2023/11/25 08:17:33;;;;;;;6.13;1.80;;;;;;;20.38;53.92;101363.34;5083918;28;20401;-36
2023/11/25 08:19:58;;;;;;;5.70;1.80;;;;;;;20.36;54.02;101369.13;5085708;28;20527;-36
2023/11/25 08:22:24;;;;;;;3.67;1.75;;;;;;;20.33;54.02;101377.09;5072248;28;20028;-36
2023/11/25 08:24:52;;;;;;;7.32;2.38;;;;;;;20.29;54.17;101365.81;5085340;28;20020;-38
2023/11/25 08:27:18;;;;;;;3.83;1.55;;;;;;;20.25;54.32;101362.00;5076816;28;20342;-35
2023/11/25 08:29:44;;;;;;;5.13;1.55;;;;;;;20.21;54.47;101363.66;5087973;28;20024;-35
2023/11/25 08:32:09;;;;;;;7.10;1.90;;;;;;;20.17;54.39;101352.41;5094082;28;20024;-35
2023/11/25 08:34:36;;;;;;;4.85;1.75;;;;;;;20.14;54.50;101369.44;5083141;28;20031;-35
2023/11/25 08:37:02;;;;;;;5.07;1.90;;;;;;;20.13;54.18;101380.75;5080774;28;20016;-36
2023/11/25 08:39:28;;;;;;;4.57;1.50;;;;;;;20.10;53.94;101386.78;5086335;28;20070;-36
2023/11/25 08:41:54;;;;;;;4.05;1.88;;;;;;;20.08;54.37;101372.50;5076540;28;20020;-36
2023/11/25 08:44:20;;;;;;;3.80;1.58;;;;;;;20.04;54.00;101363.97;5082474;28;20070;-36
2023/11/25 08:46:46;;;;;;;6.15;1.90;;;;;;;20.00;54.40;101365.63;5079743;28;20028;-36
2023/11/25 08:49:18;;;;;;;4.95;1.83;;;;;;;19.96;54.62;101354.38;5088856;28;20031;-36
2023/11/25 08:51:46;;;;;;;4.60;1.63;;;;;;;19.96;54.47;101359.03;5087169;28;20047;-35
2023/11/25 08:54:13;;;;;;;4.30;1.77;;;;;;;19.94;54.50;101358.47;5077852;28;20116;-35
2023/11/25 08:56:53;;;;;;;4.90;1.83;;;;;;;19.94;54.68;101352.97;5083816;28;20052;-35
2023/11/25 08:59:20;;;;;;;4.47;1.58;;;;;;;19.94;54.66;101356.56;5082471;28;20408;-35
2023/11/25 09:01:47;;;;;;;4.47;1.77;;;;;;;19.93;54.38;101354.91;5083012;28;20023;-35
2023/11/25 09:04:19;;;;;;;5.70;1.80;;;;;;;19.93;54.70;101365.91;5078855;28;20020;-36
2023/11/25 09:06:46;;;;;;;4.00;1.48;;;;;;;19.93;54.70;101371.41;5085145;28;20464;-35
2023/11/25 09:09:14;;;;;;;4.50;1.75;;;;;;;19.94;54.42;101380.47;5080914;28;20285;-36
2023/11/25 09:11:39;;;;;;;5.22;1.60;;;;;;;19.94;54.27;101370.31;5079476;28;20059;-36
2023/11/25 09:14:06;;;;;;;4.68;1.70;;;;;;;19.94;54.23;101369.47;5095812;28;20023;-36
2023/11/25 09:16:31;;;;;;;4.13;1.77;;;;;;;19.94;54.31;101373.06;5092610;28;20100;-36
2023/11/25 09:18:57;;;;;;;4.22;1.88;;;;;;;19.93;54.24;101374.16;5077947;28;20028;-36
2023/11/25 09:21:24;;;;;;;7.22;2.58;;;;;;;19.93;53.95;101376.91;5081164;28;20032;-36
2023/11/25 09:23:49;;;;;;;7.45;2.05;;;;;;;19.93;53.70;101370.59;5089082;28;20079;-35
2023/11/25 09:26:15;;;;;;;8.15;1.92;;;;;;;19.90;53.61;101369.22;5089126;28;20488;-36
2023/11/25 09:28:40;;;;;;;5.32;1.92;;;;;;;19.90;53.54;101368.41;5087564;28;20101;-36
2023/11/25 09:31:06;;;;;;;5.15;1.80;;;;;;;19.88;53.22;101369.50;5084846;28;20157;-36
2023/11/25 09:33:32;;;;;;;5.28;1.80;;;;;;;19.88;53.51;101368.69;5086068;28;20058;-36
2023/11/25 09:35:58;;;;;;;7.85;2.20;;;;;;;19.88;53.57;101371.44;5069162;28;20091;-35
2023/11/25 09:38:23;;;;;;;5.13;1.85;;;;;;;19.86;53.47;101373.63;5081345;28;20024;-36
2023/11/25 09:40:48;;;;;;;12.80;1.90;;;;;;;19.86;53.72;101377.22;5080048;28;20031;-36
2023/11/25 09:43:15;;;;;;;10.80;2.30;;;;;;;19.86;53.75;101373.63;5087480;28;20467;-35
2023/11/25 09:45:41;;;;;;;8.50;1.90;;;;;;;19.86;53.82;101377.22;5086655;28;20047;-36
2023/11/25 09:48:07;;;;;;;4.72;1.75;;;;;;;19.86;53.68;101387.38;5123038;27;20392;-36
2023/11/25 09:50:34;;;;;;;6.72;1.88;;;;;;;19.85;53.78;101393.97;5083528;28;20067;-36
2023/11/25 09:53:09;;;;;;;7.43;2.20;;;;;;;19.84;53.53;101406.91;5086017;28;20036;-36
2023/11/25 09:55:36;;;;;;;8.32;1.90;;;;;;;19.82;53.86;101400.81;5080413;28;20058;-35
2023/11/25 09:58:08;;;;;;;6.28;2.38;;;;;;;19.81;53.42;101401.91;5093228;28;20503;-36
2023/11/25 10:00:37;;;;;;;8.13;2.38;;;;;;;19.80;53.31;101405.75;5085346;28;20965;-36
2023/11/25 10:03:06;;;;;;;6.20;1.90;;;;;;;19.80;53.40;101399.44;5084011;28;20055;-36
2023/11/25 10:05:32;;;;;;;6.90;2.20;;;;;;;19.78;53.59;101387.91;5087345;28;20682;-36
2023/11/25 10:07:57;;;;;;;5.05;1.55;;;;;;;19.79;53.47;101379.38;5089517;28;20032;-36
2023/11/25 10:10:26;;;;;;;7.50;1.70;;;;;;;19.80;53.28;101393.94;5087018;28;20039;-36
2023/11/25 10:12:51;;;;;;;8.23;2.20;;;;;;;19.80;53.38;101382.94;5083320;28;20092;-36
2023/11/25 10:15:17;;;;;;;14.80;2.60;;;;;;;19.84;53.69;101373.06;5089807;28;20035;-36
2023/11/25 10:17:44;;;;;;;9.90;2.15;;;;;;;19.89;53.31;101378.59;5088506;28;20098;-37
2023/11/25 10:20:13;;;;;;;9.70;1.85;;;;;;;19.96;53.54;101376.38;5086878;28;20410;-37
2023/11/25 10:22:49;;;;;;;7.68;2.10;;;;;;;20.00;53.29;101371.97;5089219;28;20079;-38
2023/11/25 10:25:19;;;;;;;24.25;2.42;;;;;;;20.08;53.42;101389.00;5087595;28;20073;-38
2023/11/25 10:27:45;;;;;;;12.20;2.35;;;;;;;20.11;53.43;101389.28;5093411;28;20317;-37
2023/11/25 10:30:14;;;;;;;7.47;1.80;;;;;;;20.12;53.23;101374.44;5085038;28;20051;-38
2023/11/25 10:32:40;;;;;;;9.55;2.08;;;;;;;20.17;52.87;101381.81;5090826;28;20042;-37
2023/11/25 10:35:08;;;;;;;7.07;2.20;;;;;;;20.18;52.84;101377.97;5089835;28;20585;-37
2023/11/25 10:37:34;;;;;;;5.80;2.08;;;;;;;20.20;53.04;101373.84;5091061;28;20031;-37
2023/11/25 10:39:59;;;;;;;7.35;2.20;;;;;;;20.24;52.92;101359.53;5083817;28;20389;-37
2023/11/25 10:42:26;;;;;;;8.20;1.95;;;;;;;20.27;53.22;101356.19;5085536;28;20069;-37
2023/11/25 10:44:52;;;;;;;9.23;2.33;;;;;;;20.31;53.12;101349.06;5068637;28;20024;-36
2023/11/25 10:47:35;;;;;;;7.47;2.13;;;;;;;20.38;53.27;101363.34;5092530;28;20419;-37
2023/11/25 10:50:03;;;;;;;8.27;2.25;;;;;;;20.44;53.33;101358.63;5093027;28;20035;-37
2023/11/25 10:52:35;;;;;;;15.35;2.20;;;;;;;20.49;53.22;101364.94;5085108;28;20016;-37
2023/11/25 10:55:02;;;;;;;6.32;2.10;;;;;;;20.54;53.16;101383.38;5083589;28;21274;-37
2023/11/25 10:57:29;;;;;;;7.75;2.50;;;;;;;20.59;53.24;101366.84;5083303;28;20048;-37
2023/11/25 10:59:57;;;;;;;9.32;2.53;;;;;;;20.64;52.96;101374.25;5089440;28;20081;-36
2023/11/25 11:02:30;;;;;;;95.72;4.88;;;;;;;20.69;52.91;101363.22;5094529;28;20131;-37
2023/11/25 11:05:08;;;;;;;9.13;2.20;;;;;;;20.73;53.04;101352.50;5084655;28;20514;-37
2023/11/25 11:07:37;;;;;;;5.40;1.92;;;;;;;20.79;53.11;101351.34;5126188;27;20101;-37
2023/11/25 11:10:05;;;;;;;47.03;3.80;;;;;;;20.85;52.97;101372.25;5087425;28;20496;-37
2023/11/25 11:12:43;;;;;;;21.60;3.25;;;;;;;20.88;52.97;101384.63;5092613;28;20028;-37
2023/11/25 11:15:14;;;;;;;10.48;2.53;;;;;;;20.87;53.46;101361.78;5086468;28;20814;-37
2023/11/25 11:18:13;;;;;;;12.02;2.80;;;;;;;20.85;52.97;101377.78;5082718;28;20027;-37
2023/11/25 11:20:42;;;;;;;10.75;3.42;;;;;;;20.82;52.83;101389.34;5102643;27;20499;-37